Time;durP1;ratioP1;P1;durP2;ratioP2;P2;SDS_P1;SDS_P2;PMS_P1;PMS_P2;Temp;Humidity;BMP_temperature;BMP_pressure;BME280_temperature;BME280_humidity;BME280_pressure;Samples;Min_cycle;Max_cycle;Signal;HPM_P1;HPM_P2
2022/10/13 00:01:49;;;;;;;17.83;7.65;;;9.70;99.90;;;;;;5029689;28;20125;-83
2022/10/13 00:04:15;;;;;;;19.95;8.85;;;9.70;99.90;;;;;;5001274;28;20488;-84
2022/10/13 00:06:41;;;;;;;20.95;8.73;;;9.70;99.90;;;;;;5047610;28;20462;-84
2022/10/13 00:09:06;;;;;;;20.80;8.05;;;9.70;99.90;;;;;;5042602;28;20452;-83
2022/10/13 00:11:32;;;;;;;20.52;8.55;;;9.70;99.90;;;;;;5043172;28;20404;-83
2022/10/13 00:14:01;;;;;;;17.85;8.73;;;9.70;99.90;;;;;;5017965;28;20081;-83
2022/10/13 00:16:29;;;;;;;19.50;8.30;;;9.70;99.90;;;;;;5031580;28;20140;-84
2022/10/13 00:18:55;;;;;;;18.25;9.40;;;9.70;99.90;;;;;;5026485;28;20037;-84
2022/10/13 00:21:23;;;;;;;17.63;7.82;;;9.70;99.90;;;;;;5047295;28;20033;-83
2022/10/13 00:23:50;;;;;;;19.55;9.25;;;9.70;99.90;;;;;;5047153;28;20041;-83
2022/10/13 00:26:17;;;;;;;16.85;8.23;;;9.70;99.90;;;;;;5034776;28;20037;-83
2022/10/13 00:28:42;;;;;;;22.33;8.85;;;9.70;99.90;;;;;;5052412;28;20131;-83
2022/10/13 00:31:24;;;;;;;24.33;8.35;;;9.70;99.90;;;;;;5050940;28;20055;-83
2022/10/13 00:33:49;;;;;;;26.00;8.68;;;9.70;99.90;;;;;;5031878;28;20036;-83
2022/10/13 00:36:16;;;;;;;15.57;8.20;;;9.70;99.90;;;;;;5044525;28;20053;-83
2022/10/13 00:38:42;;;;;;;25.00;9.85;;;9.70;99.90;;;;;;5028754;28;20049;-83
2022/10/13 00:41:08;;;;;;;17.30;8.50;;;9.70;99.90;;;;;;5044735;28;20099;-83
2022/10/13 00:43:52;;;;;;;18.55;8.18;;;9.70;99.90;;;;;;5025499;28;20162;-83
2022/10/13 00:46:19;;;;;;;17.08;8.07;;;9.70;99.90;;;;;;5040022;28;20057;-83
2022/10/13 00:48:46;;;;;;;17.92;7.90;;;9.70;99.90;;;;;;5066323;28;20052;-84
2022/10/13 00:51:16;;;;;;;18.30;8.82;;;9.70;99.90;;;;;;5051659;28;20080;-83
2022/10/13 00:53:44;;;;;;;17.17;8.75;;;9.70;99.90;;;;;;5030808;28;20045;-83
2022/10/13 00:56:11;;;;;;;18.38;8.25;;;9.70;99.90;;;;;;5033595;28;20056;-83
2022/10/13 00:58:38;;;;;;;20.38;8.75;;;9.70;99.90;;;;;;5044589;28;20041;-83
2022/10/13 01:01:05;;;;;;;17.63;8.98;;;9.70;99.90;;;;;;5042699;28;20100;-84
2022/10/13 01:03:31;;;;;;;20.45;9.15;;;9.70;99.90;;;;;;5035607;28;20041;-83
2022/10/13 01:06:01;;;;;;;20.55;8.52;;;9.60;99.90;;;;;;5026899;28;20132;-83
2022/10/13 01:08:28;;;;;;;19.88;8.48;;;9.60;99.90;;;;;;5033298;28;20512;-83
2022/10/13 01:11:00;;;;;;;24.33;8.98;;;9.60;99.90;;;;;;5040449;28;20080;-83
2022/10/13 01:13:52;;;;;;;;;;;9.60;99.90;;;;;;5026757;28;20045;-83
2022/10/13 01:16:24;;;;;;;21.70;8.80;;;9.60;99.90;;;;;;5045887;28;19925;-84
2022/10/13 01:19:14;;;;;;;20.85;8.07;;;9.60;99.90;;;;;;5049165;28;20044;-83
2022/10/13 01:22:10;;;;;;;15.13;7.90;;;9.60;99.90;;;;;;5046305;28;20041;-83
2022/10/13 01:24:59;;;;;;;19.23;8.63;;;9.60;99.90;;;;;;5032950;28;20565;-83
2022/10/13 01:27:39;;;;;;;21.60;8.40;;;9.60;99.90;;;;;;5030196;28;20053;-84
2022/10/13 01:30:06;;;;;;;15.43;8.45;;;9.60;99.90;;;;;;5048875;28;20038;-83
2022/10/13 01:33:10;;;;;;;23.13;8.80;;;9.50;99.90;;;;;;5033610;28;20419;-83
2022/10/13 01:35:47;;;;;;;17.25;8.77;;;9.50;99.90;;;;;;5043283;28;20090;-83
2022/10/13 01:38:34;;;;;;;15.27;8.40;;;9.40;99.90;;;;;;5041295;28;20064;-83
2022/10/13 01:41:08;;;;;;;22.20;9.40;;;9.40;99.90;;;;;;5045447;28;20048;-83
2022/10/13 01:43:39;;;;;;;17.42;8.30;;;9.30;99.90;;;;;;5024336;28;20057;-84
2022/10/13 01:46:11;;;;;;;15.50;8.45;;;9.30;99.90;;;;;;5042989;28;20037;-83
2022/10/13 01:48:39;;;;;;;21.95;9.20;;;9.40;99.90;;;;;;5040749;28;20041;-83
2022/10/13 01:51:09;;;;;;;22.85;9.77;;;9.40;99.90;;;;;;5041110;28;20105;-83
2022/10/13 01:53:36;;;;;;;23.63;9.25;;;9.30;99.90;;;;;;5041247;28;20060;-83
2022/10/13 01:56:02;;;;;;;16.17;8.50;;;9.40;99.90;;;;;;5031242;28;20049;-83
2022/10/13 01:58:32;;;;;;;20.27;8.65;;;9.40;99.90;;;;;;5024866;28;20041;-83
2022/10/13 02:01:13;;;;;;;18.83;10.30;;;9.40;99.90;;;;;;5045195;28;20045;-83
2022/10/13 02:04:09;;;;;;;21.77;9.23;;;9.50;99.90;;;;;;5051708;28;20110;-83
2022/10/13 02:06:42;;;;;;;19.48;8.98;;;9.40;99.90;;;;;;5030187;28;20065;-84
2022/10/13 02:09:25;;;;;;;18.10;8.80;;;9.40;99.90;;;;;;5025148;28;20141;-83
2022/10/13 02:11:57;;;;;;;23.10;9.68;;;9.40;99.90;;;;;;5050557;28;20045;-83
2022/10/13 02:14:27;;;;;;;17.90;9.32;;;9.40;99.90;;;;;;5041875;28;20045;-83
2022/10/13 02:16:54;;;;;;;15.82;8.05;;;9.50;99.90;;;;;;5046707;28;20045;-83
2022/10/13 02:19:20;;;;;;;21.52;10.02;;;9.40;99.90;;;;;;5044006;28;20057;-83
2022/10/13 02:21:47;;;;;;;24.90;10.82;;;9.50;99.90;;;;;;5042421;28;20076;-83
2022/10/13 02:24:13;;;;;;;20.30;9.10;;;9.40;99.90;;;;;;5052612;28;20499;-83
2022/10/13 02:26:40;;;;;;;23.38;10.63;;;9.50;99.90;;;;;;5049644;28;20104;-83
2022/10/13 02:29:11;;;;;;;24.13;9.43;;;9.40;99.90;;;;;;5040507;28;20067;-83
2022/10/13 02:31:38;;;;;;;25.85;10.18;;;9.50;99.90;;;;;;5036706;28;20033;-83
2022/10/13 02:34:04;;;;;;;19.70;9.80;;;9.50;99.90;;;;;;5049651;28;20037;-82
2022/10/13 02:36:30;;;;;;;18.55;9.65;;;9.50;99.90;;;;;;5045163;28;20049;-83
2022/10/13 02:38:55;;;;;;;27.42;10.20;;;9.60;99.90;;;;;;5036831;28;20114;-83
2022/10/13 02:41:21;;;;;;;20.73;8.80;;;9.50;99.90;;;;;;5025265;28;20049;-84
2022/10/13 02:43:47;;;;;;;21.17;9.20;;;9.60;99.90;;;;;;5043514;28;20483;-83
2022/10/13 02:46:13;;;;;;;23.08;9.98;;;9.50;99.90;;;;;;5054626;28;20041;-83
2022/10/13 02:48:39;;;;;;;17.45;8.63;;;9.60;99.90;;;;;;5033400;28;20030;-83
2022/10/13 02:51:05;;;;;;;21.73;9.75;;;9.60;99.90;;;;;;5031454;28;20049;-83
2022/10/13 02:53:30;;;;;;;21.67;9.63;;;9.60;99.90;;;;;;5027986;28;20409;-83
2022/10/13 02:55:56;;;;;;;21.23;9.20;;;9.60;99.90;;;;;;5054355;28;20089;-83
2022/10/13 02:58:22;;;;;;;24.50;10.32;;;9.70;99.90;;;;;;5030997;28;20146;-84
2022/10/13 03:00:47;;;;;;;20.75;8.85;;;9.70;99.90;;;;;;5044287;28;20041;-83
2022/10/13 03:03:13;;;;;;;20.38;8.95;;;9.70;99.90;;;;;;5045278;28;20049;-83
2022/10/13 03:05:39;;;;;;;22.38;9.50;;;9.70;99.90;;;;;;5053132;28;20064;-83
2022/10/13 03:08:05;;;;;;;19.92;8.90;;;9.70;99.90;;;;;;5043556;28;20052;-83
2022/10/13 03:10:31;;;;;;;26.10;9.82;;;9.80;99.90;;;;;;5050504;28;20458;-83
2022/10/13 03:12:58;;;;;;;22.45;10.13;;;9.80;99.90;;;;;;5052090;28;20045;-83
2022/10/13 03:15:24;;;;;;;26.15;10.40;;;9.80;99.90;;;;;;5030286;28;20049;-83
2022/10/13 03:17:50;;;;;;;22.15;10.60;;;9.80;99.90;;;;;;5062667;28;20052;-83
2022/10/13 03:20:15;;;;;;;19.98;10.23;;;9.80;99.90;;;;;;5034469;28;20052;-84
2022/10/13 03:22:41;;;;;;;17.05;8.68;;;9.80;99.90;;;;;;5028199;28;20033;-83
2022/10/13 03:25:07;;;;;;;22.02;10.15;;;9.80;99.90;;;;;;5049924;28;20051;-84
2022/10/13 03:27:33;;;;;;;20.70;10.60;;;9.90;99.90;;;;;;5050578;28;20042;-84
2022/10/13 03:29:59;;;;;;;19.95;10.23;;;9.90;99.90;;;;;;5046504;28;20054;-83
2022/10/13 03:32:25;;;;;;;18.58;9.45;;;9.90;99.90;;;;;;5046860;28;20041;-85
2022/10/13 03:34:51;;;;;;;20.88;9.68;;;9.90;99.90;;;;;;5035851;28;20041;-84
2022/10/13 03:37:17;;;;;;;20.42;10.32;;;9.90;99.90;;;;;;5052203;28;20045;-85
2022/10/13 03:39:42;;;;;;;22.92;10.27;;;9.90;99.90;;;;;;5043842;28;20048;-84
2022/10/13 03:42:09;;;;;;;23.00;10.35;;;9.90;99.90;;;;;;5047704;28;20047;-84
2022/10/13 03:44:34;;;;;;;25.63;10.05;;;9.90;99.90;;;;;;5040350;28;20057;-84
2022/10/13 03:47:00;;;;;;;21.38;10.82;;;9.90;99.90;;;;;;5025616;28;20060;-84
2022/10/13 03:49:26;;;;;;;25.80;10.40;;;9.90;99.90;;;;;;5010632;28;20132;-84
2022/10/13 03:51:51;;;;;;;22.20;10.93;;;9.90;99.90;;;;;;5015197;28;20044;-83
2022/10/13 03:54:17;;;;;;;24.83;10.52;;;9.90;99.90;;;;;;5050614;28;20047;-84
2022/10/13 03:56:43;;;;;;;21.88;10.77;;;9.90;99.90;;;;;;5043475;28;20408;-83
2022/10/13 03:59:12;;;;;;;21.50;10.98;;;9.90;99.90;;;;;;5033112;28;20064;-83
2022/10/13 04:01:38;;;;;;;25.75;11.15;;;9.90;99.90;;;;;;5044428;28;20050;-84
2022/10/13 04:04:06;;;;;;;24.52;11.48;;;9.90;99.90;;;;;;5062615;28;20072;-83
2022/10/13 04:06:31;;;;;;;23.52;10.23;;;9.90;99.90;;;;;;5030206;28;20484;-84
2022/10/13 04:08:57;;;;;;;47.03;14.27;;;9.90;99.90;;;;;;5040901;28;20446;-83
2022/10/13 04:11:23;;;;;;;23.63;10.98;;;9.90;99.90;;;;;;5044294;28;20070;-83
2022/10/13 04:13:50;;;;;;;24.70;11.57;;;9.90;99.90;;;;;;5025234;28;20420;-83
2022/10/13 04:16:24;;;;;;;25.30;11.18;;;9.90;99.90;;;;;;5031189;28;20043;-83
2022/10/13 04:18:53;;;;;;;24.30;11.00;;;9.90;99.90;;;;;;5036444;28;20045;-83
2022/10/13 04:21:19;;;;;;;29.90;12.70;;;9.90;99.90;;;;;;5052922;28;20041;-83
2022/10/13 04:23:44;;;;;;;25.35;12.45;;;9.90;99.90;;;;;;5033326;28;20126;-83
2022/10/13 04:26:19;;;;;;;22.35;11.45;;;9.90;99.90;;;;;;5040877;28;20400;-84
2022/10/13 04:28:46;;;;;;;20.13;10.60;;;9.90;99.90;;;;;;5034000;28;20684;-82
2022/10/13 04:31:12;;;;;;;19.00;10.57;;;9.90;99.90;;;;;;5032641;28;20456;-83
2022/10/13 04:33:38;;;;;;;23.88;12.32;;;10.00;99.90;;;;;;5036167;28;20118;-83
2022/10/13 04:36:05;;;;;;;22.55;10.80;;;10.00;99.90;;;;;;5024211;28;20053;-84
2022/10/13 04:38:31;;;;;;;23.52;11.45;;;10.00;99.90;;;;;;5053764;28;20074;-83
2022/10/13 04:40:57;;;;;;;25.33;11.45;;;10.00;99.90;;;;;;5043259;28;20101;-83
2022/10/13 04:43:22;;;;;;;23.80;10.80;;;10.00;99.90;;;;;;5042070;28;20873;-83
2022/10/13 04:45:48;;;;;;;19.33;10.07;;;10.00;99.90;;;;;;5025951;28;20140;-83
2022/10/13 04:48:14;;;;;;;19.95;10.43;;;10.00;99.90;;;;;;5046273;28;20045;-84
2022/10/13 04:50:39;;;;;;;21.92;11.32;;;10.00;99.90;;;;;;5044114;28;20052;-82
2022/10/13 04:53:08;;;;;;;25.02;11.35;;;10.00;99.90;;;;;;5043640;28;20040;-83
2022/10/13 04:55:35;;;;;;;21.98;11.40;;;9.90;99.90;;;;;;5027804;28;20053;-83
2022/10/13 04:58:01;;;;;;;27.70;11.18;;;9.90;99.90;;;;;;5039398;28;20060;-83
2022/10/13 05:00:27;;;;;;;31.10;12.23;;;10.00;99.90;;;;;;5023564;28;20038;-84
2022/10/13 05:02:52;;;;;;;23.10;11.02;;;9.90;99.90;;;;;;5057061;28;20040;-83
2022/10/13 05:05:18;;;;;;;24.65;11.80;;;9.90;99.90;;;;;;5038435;28;20045;-83
2022/10/13 05:07:44;;;;;;;105.97;54.03;;;9.90;99.90;;;;;;5029944;28;20084;-83
2022/10/13 05:10:09;;;;;;;25.33;12.18;;;9.90;99.90;;;;;;5034788;28;20052;-83
2022/10/13 05:12:35;;;;;;;32.17;12.80;;;9.90;99.90;;;;;;5024794;28;20091;-83
2022/10/13 05:15:01;;;;;;;23.00;10.57;;;9.90;99.90;;;;;;5023734;28;20046;-83
2022/10/13 05:17:30;;;;;;;28.08;12.55;;;9.90;99.90;;;;;;5028980;28;20041;-83
2022/10/13 05:19:55;;;;;;;23.77;11.40;;;9.90;99.90;;;;;;5046768;28;20061;-83
2022/10/13 05:22:21;;;;;;;27.80;12.95;;;9.90;99.90;;;;;;5041376;28;20055;-83
2022/10/13 05:24:47;;;;;;;24.90;11.38;;;9.90;99.90;;;;;;5046351;28;20064;-82
2022/10/13 05:27:12;;;;;;;30.30;14.18;;;9.90;99.90;;;;;;5044182;28;20050;-82
2022/10/13 05:29:39;;;;;;;26.85;12.55;;;9.90;99.90;;;;;;5029849;28;20833;-81
2022/10/13 05:32:05;;;;;;;29.67;11.35;;;9.90;99.90;;;;;;5044067;28;20113;-81
2022/10/13 05:34:31;;;;;;;27.05;13.20;;;9.90;99.90;;;;;;5025058;28;20099;-81
2022/10/13 05:36:58;;;;;;;25.52;11.80;;;9.90;99.90;;;;;;5040994;28;20041;-81
2022/10/13 05:39:24;;;;;;;29.58;12.25;;;9.90;99.90;;;;;;5023287;28;20102;-81
2022/10/13 05:41:49;;;;;;;31.42;11.82;;;10.00;99.90;;;;;;5042037;28;20156;-82
2022/10/13 05:44:16;;;;;;;23.13;11.75;;;10.00;99.90;;;;;;5041549;28;20520;-82
2022/10/13 05:46:43;;;;;;;27.17;12.18;;;10.00;99.90;;;;;;5042624;28;20037;-82
2022/10/13 05:49:09;;;;;;;25.00;11.98;;;10.00;99.90;;;;;;5063257;28;20057;-82
2022/10/13 05:51:47;;;;;;;29.25;12.07;;;10.10;99.90;;;;;;5037269;28;20053;-82
2022/10/13 05:54:23;;;;;;;25.48;12.10;;;10.10;99.90;;;;;;5020231;28;20087;-82
2022/10/13 05:57:13;;;;;;;27.27;11.82;;;10.10;99.90;;;;;;5038099;28;20084;-82
2022/10/13 05:59:44;;;;;;;22.90;12.23;;;10.20;99.90;;;;;;5053392;28;20397;-82
2022/10/13 06:02:13;;;;;;;21.65;12.02;;;10.10;99.90;;;;;;5041388;28;20050;-82
2022/10/13 06:04:48;;;;;;;29.33;11.90;;;10.20;99.90;;;;;;5058348;28;20112;-82
2022/10/13 06:07:13;;;;;;;26.70;12.35;;;10.20;99.90;;;;;;5078600;28;20041;-81
2022/10/13 06:09:40;;;;;;;31.95;12.05;;;10.20;99.90;;;;;;5065957;28;20056;-82
2022/10/13 06:12:07;;;;;;;26.95;11.93;;;10.20;99.90;;;;;;5043264;28;20041;-82
2022/10/13 06:14:33;;;;;;;24.10;12.45;;;10.20;99.90;;;;;;5028974;28;20068;-82
2022/10/13 06:16:58;;;;;;;30.08;13.50;;;10.20;99.90;;;;;;5051954;28;20497;-82
2022/10/13 06:19:24;;;;;;;26.95;13.07;;;10.20;99.90;;;;;;5042210;28;20050;-82
2022/10/13 06:21:50;;;;;;;24.27;12.15;;;10.30;99.90;;;;;;5024917;28;20085;-82
2022/10/13 06:24:15;;;;;;;27.30;12.55;;;10.30;99.90;;;;;;5040373;28;20052;-83
2022/10/13 06:26:41;;;;;;;25.95;12.30;;;10.30;99.90;;;;;;5060710;28;20047;-82
2022/10/13 06:29:07;;;;;;;25.80;11.75;;;10.30;99.90;;;;;;5061481;28;20611;-82
2022/10/13 06:31:33;;;;;;;28.83;11.80;;;10.30;99.90;;;;;;5062104;28;20049;-83
2022/10/13 06:33:59;;;;;;;29.08;12.27;;;10.30;99.90;;;;;;5018435;28;20504;-82
2022/10/13 06:36:25;;;;;;;27.48;12.18;;;10.40;99.90;;;;;;5041615;28;20068;-83
2022/10/13 06:38:50;;;;;;;30.30;12.82;;;10.40;99.90;;;;;;5041205;28;20128;-82
2022/10/13 06:41:17;;;;;;;27.23;11.27;;;10.40;99.90;;;;;;5041701;28;20045;-83
2022/10/13 06:43:43;;;;;;;27.90;12.40;;;10.50;99.90;;;;;;5048025;28;20071;-83
2022/10/13 06:46:09;;;;;;;22.25;11.13;;;10.50;99.90;;;;;;5055733;28;20455;-82
2022/10/13 06:48:35;;;;;;;29.02;12.68;;;10.50;99.90;;;;;;5041532;28;20045;-83
2022/10/13 06:51:06;;;;;;;25.38;12.00;;;10.60;99.90;;;;;;5041115;28;20052;-82
2022/10/13 06:53:32;;;;;;;27.55;12.20;;;10.60;99.90;;;;;;5024297;28;20049;-83
2022/10/13 06:55:58;;;;;;;27.75;11.77;;;10.60;99.90;;;;;;5059119;28;20037;-82
2022/10/13 06:58:24;;;;;;;30.17;12.02;;;10.70;99.90;;;;;;5076441;28;20061;-82
2022/10/13 07:00:51;;;;;;;28.98;12.15;;;10.70;99.90;;;;;;5031232;28;20096;-82
2022/10/13 07:03:17;;;;;;;30.58;13.13;;;10.70;99.90;;;;;;5048387;28;20079;-82
2022/10/13 07:05:43;;;;;;;30.17;12.63;;;10.80;99.90;;;;;;5047576;28;20045;-83
2022/10/13 07:08:08;;;;;;;22.70;11.85;;;10.80;99.90;;;;;;5040875;28;20117;-83
2022/10/13 07:10:37;;;;;;;30.20;14.77;;;10.80;99.90;;;;;;5024295;28;20566;-83
2022/10/13 07:13:03;;;;;;;22.02;12.10;;;10.80;99.90;;;;;;5040529;28;20515;-82
2022/10/13 07:15:29;;;;;;;31.27;13.50;;;10.90;99.90;;;;;;5012897;28;20462;-82
2022/10/13 07:17:55;;;;;;;26.40;11.98;;;10.90;99.90;;;;;;5024387;28;20539;-82
2022/10/13 07:20:22;;;;;;;30.05;12.95;;;10.90;99.90;;;;;;5040092;28;20080;-82
2022/10/13 07:22:48;;;;;;;26.45;11.35;;;11.00;99.90;;;;;;5040955;28;20054;-82
2022/10/13 07:25:14;;;;;;;29.83;13.10;;;10.90;99.90;;;;;;5040568;28;20546;-83
2022/10/13 07:27:40;;;;;;;29.08;13.15;;;11.00;99.90;;;;;;5024893;28;20384;-83
2022/10/13 07:30:07;;;;;;;25.15;12.15;;;11.00;99.90;;;;;;5040970;28;20050;-82
2022/10/13 07:32:34;;;;;;;23.75;11.93;;;11.00;99.90;;;;;;5040531;28;20045;-82
2022/10/13 07:34:59;;;;;;;31.58;12.00;;;11.10;99.90;;;;;;5035717;28;20044;-83
2022/10/13 07:37:25;;;;;;;33.67;12.13;;;11.10;99.90;;;;;;5023493;28;20041;-83
2022/10/13 07:39:51;;;;;;;26.17;11.68;;;11.20;99.90;;;;;;5040324;28;20075;-83
2022/10/13 07:42:17;;;;;;;24.85;12.15;;;11.20;99.90;;;;;;5040211;28;20045;-83
2022/10/13 07:44:43;;;;;;;20.27;11.23;;;11.30;99.90;;;;;;5040574;28;20050;-82
2022/10/13 07:47:09;;;;;;;24.95;12.52;;;11.40;99.90;;;;;;5023553;28;20048;-83
2022/10/13 07:49:35;;;;;;;25.75;11.80;;;11.40;99.90;;;;;;5024112;28;20088;-83
2022/10/13 07:52:00;;;;;;;29.35;11.80;;;11.50;99.90;;;;;;5056905;28;20072;-83
2022/10/13 07:54:26;;;;;;;27.52;12.40;;;11.50;99.90;;;;;;5039025;28;20116;-83
2022/10/13 07:56:53;;;;;;;24.60;12.35;;;11.60;99.90;;;;;;5041537;28;20061;-83
2022/10/13 07:59:18;;;;;;;23.92;12.75;;;11.60;99.90;;;;;;5023408;28;20048;-82
2022/10/13 08:01:44;;;;;;;26.48;13.75;;;11.70;99.90;;;;;;5031266;28;20113;-82
2022/10/13 08:04:10;;;;;;;26.17;13.63;;;11.80;99.90;;;;;;5039561;28;20105;-82
2022/10/13 08:06:36;;;;;;;29.08;12.77;;;11.90;99.90;;;;;;5040339;28;20050;-81
2022/10/13 08:09:03;;;;;;;31.65;13.15;;;12.00;99.90;;;;;;5006717;28;20061;-82
2022/10/13 08:11:29;;;;;;;27.55;11.82;;;12.00;99.90;;;;;;5041360;28;20084;-82
2022/10/13 08:13:59;;;;;;;24.98;12.80;;;12.00;99.90;;;;;;5075412;28;20068;-83
2022/10/13 08:16:26;;;;;;;28.50;12.88;;;12.10;99.90;;;;;;5040284;28;20056;-82
2022/10/13 08:18:52;;;;;;;32.08;14.38;;;12.20;99.90;;;;;;5045227;28;20037;-82
2022/10/13 08:21:21;;;;;;;24.33;12.60;;;12.20;99.90;;;;;;5057757;28;20045;-82
2022/10/13 08:23:47;;;;;;;24.55;12.95;;;12.30;99.90;;;;;;5042336;28;20049;-82
2022/10/13 08:26:25;;;;;;;31.00;12.73;;;12.40;99.90;;;;;;5030762;28;20053;-83
2022/10/13 08:28:51;;;;;;;26.85;11.35;;;12.50;99.90;;;;;;5030902;28;20444;-83
2022/10/13 08:31:17;;;;;;;25.77;12.93;;;12.80;99.90;;;;;;5043050;28;20184;-82
2022/10/13 08:33:46;;;;;;;24.98;13.82;;;12.90;99.90;;;;;;5059039;28;20064;-82
2022/10/13 08:36:13;;;;;;;24.73;12.07;;;13.10;99.90;;;;;;5059127;28;20049;-83
2022/10/13 08:38:40;;;;;;;28.83;12.38;;;13.20;99.90;;;;;;5058773;28;20064;-83
2022/10/13 08:41:22;;;;;;;20.50;10.85;;;13.10;99.90;;;;;;5022911;28;20083;-83
2022/10/13 08:43:51;;;;;;;21.40;11.07;;;13.10;99.90;;;;;;5022620;28;20064;-83
2022/10/13 08:46:29;;;;;;;26.98;10.50;;;13.00;99.90;;;;;;5038807;28;20049;-83
2022/10/13 08:48:56;;;;;;;26.85;12.52;;;13.00;99.90;;;;;;5042823;28;20056;-83
2022/10/13 08:51:22;;;;;;;29.70;12.68;;;12.90;99.90;;;;;;5039957;28;20049;-83
2022/10/13 08:53:48;;;;;;;20.13;11.27;;;12.90;99.90;;;;;;5027524;28;20045;-84
2022/10/13 08:56:23;;;;;;;24.27;11.38;;;12.90;99.90;;;;;;5031150;28;20076;-82
2022/10/13 08:58:51;;;;;;;24.35;12.23;;;12.90;99.90;;;;;;5058810;28;20055;-83
2022/10/13 09:01:23;;;;;;;29.10;11.65;;;13.00;99.90;;;;;;5044381;28;20160;-83
2022/10/13 09:04:18;;;;;;;22.60;13.20;;;12.90;99.90;;;;;;5038575;28;20055;-83
2022/10/13 09:06:49;;;;;;;29.40;12.27;;;12.90;99.90;;;;;;5022536;28;20049;-83
2022/10/13 09:09:15;;;;;;;27.35;12.98;;;12.80;99.90;;;;;;5038493;28;20416;-82
2022/10/13 09:11:44;;;;;;;26.95;11.68;;;12.80;99.90;;;;;;5024580;28;20076;-83
2022/10/13 09:14:31;;;;;;;26.75;12.70;;;12.80;99.90;;;;;;5039193;28;20060;-83
2022/10/13 09:17:15;;;;;;;28.80;13.40;;;12.80;99.90;;;;;;5038596;28;20052;-83
2022/10/13 09:19:41;;;;;;;27.80;11.70;;;12.80;99.90;;;;;;5038710;28;20049;-83
2022/10/13 09:22:29;;;;;;;24.30;12.57;;;12.70;99.90;;;;;;5038667;28;20077;-83
2022/10/13 09:25:21;;;;;;;28.65;12.95;;;12.70;99.90;;;;;;5021803;28;20055;-83
2022/10/13 09:27:47;;;;;;;;;;;12.70;99.90;;;;;;5040675;28;20104;-83
2022/10/13 09:30:33;;;;;;;25.05;12.85;;;12.70;99.90;;;;;;5041019;28;19928;-83
2022/10/13 09:33:10;;;;;;;25.60;12.38;;;12.80;99.90;;;;;;5028768;28;20438;-84
2022/10/13 09:36:05;;;;;;;30.38;12.50;;;12.90;99.90;;;;;;5056904;28;20045;-84
2022/10/13 09:38:32;;;;;;;23.65;12.88;;;12.90;99.90;;;;;;5049104;28;20067;-84
2022/10/13 09:41:18;;;;;;;26.45;12.77;;;13.00;99.90;;;;;;5025756;28;20645;-84
2022/10/13 09:43:47;;;;;;;30.00;13.90;;;13.10;99.90;;;;;;5072544;28;20049;-84
2022/10/13 09:46:24;;;;;;;28.30;12.27;;;13.10;99.90;;;;;;5057753;28;20060;-84
2022/10/13 09:48:53;;;;;;;27.48;13.95;;;13.10;99.90;;;;;;5056701;28;20056;-83
2022/10/13 09:51:45;;;;;;;29.45;12.65;;;13.10;99.90;;;;;;5041175;28;20075;-83
2022/10/13 09:54:34;;;;;;;29.05;13.73;;;13.10;99.90;;;;;;5021134;28;20468;-84
2022/10/13 09:57:20;;;;;;;29.77;13.77;;;13.10;99.90;;;;;;5038344;28;20045;-84
2022/10/13 09:59:52;;;;;;;30.10;14.48;;;13.10;99.90;;;;;;5057744;28;20049;-84
2022/10/13 10:02:45;;;;;;;32.67;13.98;;;13.10;99.90;;;;;;5046788;28;20064;-84
2022/10/13 10:05:35;;;;;;;32.08;13.63;;;13.20;99.90;;;;;;5036636;28;20105;-84
2022/10/13 10:08:32;;;;;;;28.80;13.50;;;13.20;99.90;;;;;;5040461;28;20061;-82
2022/10/13 10:11:02;;;;;;;29.48;15.18;;;13.20;99.90;;;;;;5032976;28;20118;-84
2022/10/13 10:13:27;;;;;;;27.45;13.70;;;13.30;99.90;;;;;;5032048;28;20045;-84
2022/10/13 10:16:29;;;;;;;31.42;14.60;;;13.30;99.90;;;;;;5078111;28;20040;-83
2022/10/13 10:19:21;;;;;;;32.97;15.20;;;13.30;99.90;;;;;;5038292;28;20053;-83
2022/10/13 10:22:30;;;;;;;29.15;14.52;;;13.30;99.90;;;;;;5019077;28;20057;-83
2022/10/13 10:25:07;;;;;;;32.67;14.68;;;13.30;99.90;;;;;;5021160;28;20053;-84
2022/10/13 10:27:51;;;;;;;39.65;17.02;;;13.40;99.90;;;;;;5021662;28;20045;-83
2022/10/13 10:30:20;;;;;;;32.30;14.68;;;13.30;99.90;;;;;;5039044;28;20045;-83
2022/10/13 10:32:54;;;;;;;32.28;15.45;;;13.30;99.90;;;;;;5021305;28;20129;-82
2022/10/13 10:35:40;;;;;;;33.63;15.57;;;13.30;99.90;;;;;;5037063;28;20076;-82
2022/10/13 10:38:17;;;;;;;31.95;15.77;;;13.30;99.90;;;;;;5021461;28;20542;-81
2022/10/13 10:40:54;;;;;;;32.38;15.45;;;13.40;99.90;;;;;;5050654;28;20041;-82
2022/10/13 10:43:19;;;;;;;32.17;16.25;;;13.40;99.90;;;;;;5054069;28;20155;-82
2022/10/13 10:45:47;;;;;;;33.97;15.70;;;13.40;99.90;;;;;;5025033;28;20514;-82
2022/10/13 10:48:21;;;;;;;35.70;16.88;;;13.40;99.90;;;;;;5041204;28;20103;-82
2022/10/13 10:50:48;;;;;;;35.28;17.08;;;13.40;99.90;;;;;;5040462;28;20045;-83
2022/10/13 10:53:38;;;;;;;35.35;16.70;;;13.40;99.90;;;;;;5050703;28;20585;-83
2022/10/13 10:56:18;;;;;;;34.85;16.02;;;13.40;99.90;;;;;;5032102;28;20083;-83
2022/10/13 10:58:47;;;;;;;36.42;17.83;;;13.40;99.90;;;;;;5040971;28;20056;-82
2022/10/13 11:01:12;;;;;;;34.60;18.27;;;13.40;99.90;;;;;;5048978;28;20075;-83
2022/10/13 11:03:44;;;;;;;34.28;18.10;;;13.40;99.90;;;;;;5040656;28;20045;-83
2022/10/13 11:06:16;;;;;;;33.85;16.98;;;13.40;99.90;;;;;;5041576;28;20080;-82
2022/10/13 11:08:49;;;;;;;43.22;18.98;;;13.40;99.90;;;;;;5043002;28;20392;-82
2022/10/13 11:11:24;;;;;;;38.53;17.42;;;13.50;99.90;;;;;;5044045;28;20063;-83
2022/10/13 11:13:58;;;;;;;37.63;17.50;;;13.50;99.90;;;;;;5044112;28;20135;-83
2022/10/13 11:16:57;;;;;;;34.72;17.00;;;13.50;99.90;;;;;;5051686;28;20041;-83
2022/10/13 11:19:34;;;;;;;33.85;17.23;;;13.50;99.90;;;;;;5024865;28;20049;-83
2022/10/13 11:22:00;;;;;;;37.97;17.95;;;13.40;99.90;;;;;;5040700;28;20046;-83
2022/10/13 11:24:37;;;;;;;39.03;18.52;;;13.40;99.90;;;;;;5040309;28;20052;-83
2022/10/13 11:27:15;;;;;;;37.50;18.27;;;13.40;99.90;;;;;;5040395;28;20530;-83
2022/10/13 11:29:56;;;;;;;45.60;19.50;;;13.40;99.90;;;;;;5040571;28;20053;-83
2022/10/13 11:35:23;;;;;;;30.40;16.33;;;13.40;99.90;;;;;;5040317;28;20056;-83
2022/10/13 11:37:59;;;;;;;42.22;18.48;;;13.40;99.90;;;;;;5045272;28;20163;-83
2022/10/13 11:41:05;;;;;;;34.30;18.23;;;13.40;99.90;;;;;;5040463;28;20057;-83
2022/10/13 11:43:45;;;;;;;44.35;19.10;;;13.50;99.90;;;;;;5043091;28;20061;-83
2022/10/13 11:46:26;;;;;;;37.63;19.27;;;13.40;99.90;;;;;;5027024;28;20045;-83
2022/10/13 11:49:14;;;;;;;36.95;18.25;;;13.40;99.90;;;;;;5036418;28;20044;-83
2022/10/13 11:51:58;;;;;;;35.22;18.13;;;13.40;99.90;;;;;;5045740;28;20096;-83
2022/10/13 11:54:32;;;;;;;33.40;17.60;;;13.40;99.90;;;;;;5055389;28;20053;-85
2022/10/13 11:56:58;;;;;;;38.42;18.23;;;13.40;99.90;;;;;;5023304;28;20059;-84
2022/10/13 11:59:34;;;;;;;36.97;18.48;;;13.50;99.90;;;;;;5030087;28;20105;-84
2022/10/13 12:02:09;;;;;;;33.13;18.63;;;13.50;99.90;;;;;;5040464;28;20132;-83
2022/10/13 12:04:35;;;;;;;37.78;18.52;;;13.50;99.90;;;;;;5042322;28;20083;-83
2022/10/13 12:07:04;;;;;;;46.90;22.20;;;13.50;99.90;;;;;;5060192;28;20045;-83
2022/10/13 12:09:31;;;;;;;44.15;18.88;;;13.60;99.90;;;;;;5064038;28;20049;-84
2022/10/13 12:12:00;;;;;;;38.97;18.48;;;13.70;99.90;;;;;;5036099;28;20509;-85
2022/10/13 12:14:38;;;;;;;32.72;17.83;;;13.70;99.90;;;;;;5056116;28;20105;-85
2022/10/13 12:17:24;;;;;;;36.70;18.70;;;13.70;99.90;;;;;;5040286;28;20049;-84
2022/10/13 12:19:52;;;;;;;33.75;17.92;;;13.80;99.90;;;;;;5033974;28;20105;-86
2022/10/13 12:22:18;;;;;;;41.80;19.52;;;13.80;99.90;;;;;;5039572;28;20049;-84
2022/10/13 12:24:56;;;;;;;38.80;20.42;;;13.90;99.90;;;;;;5005906;28;20064;-85
2022/10/13 12:27:22;;;;;;;39.65;19.13;;;13.90;99.90;;;;;;5043120;28;20041;-84
2022/10/13 12:29:47;;;;;;;38.00;19.60;;;14.00;99.90;;;;;;5035596;28;20042;-84
2022/10/13 12:32:25;;;;;;;43.28;20.30;;;14.00;99.90;;;;;;5035318;28;20080;-83
2022/10/13 12:34:51;;;;;;;41.72;19.92;;;14.10;99.90;;;;;;5027126;28;20049;-84
2022/10/13 12:37:27;;;;;;;34.65;18.98;;;14.10;99.90;;;;;;5033364;28;20072;-84
2022/10/13 12:39:55;;;;;;;33.38;17.80;;;14.20;99.90;;;;;;5022801;28;20128;-84
2022/10/13 12:42:30;;;;;;;34.78;18.17;;;14.20;99.90;;;;;;5023700;28;20049;-84
2022/10/13 12:44:58;;;;;;;30.90;16.80;;;14.30;99.90;;;;;;5025473;28;20079;-85
2022/10/13 12:47:50;;;;;;;32.92;18.52;;;14.30;99.90;;;;;;5029074;28;20041;-84
2022/10/13 12:50:28;;;;;;;34.85;17.75;;;14.20;99.90;;;;;;5039625;28;20041;-85
2022/10/13 12:53:17;;;;;;;32.40;17.33;;;14.20;99.90;;;;;;5049959;28;20260;-84
2022/10/13 12:55:57;;;;;;;30.75;17.77;;;14.20;99.90;;;;;;5048974;28;20044;-87